Time;durP1;ratioP1;P1;durP2;ratioP2;P2;SDS_P1;SDS_P2;PMS_P1;PMS_P2;Temp;Humidity;BMP_temperature;BMP_pressure;BME280_temperature;BME280_humidity;BME280_pressure;Samples;Min_cycle;Max_cycle;Signal;HPM_P1;HPM_P2
2023/01/05 00:01:47;;;;;;;;;;;;;;;19.56;39.60;96122.19;10393676;28;2761;-45
2023/01/05 00:06:47;;;;;;;;;;;;;;;19.54;39.05;96119.03;10400915;28;2802;-45
2023/01/05 00:22:32;;;;;;;;;;;;;;;19.47;39.23;96099.00;10399486;28;2661;-45
2023/01/05 00:27:32;;;;;;;;;;;;;;;19.45;39.08;96090.56;10402685;28;2746;-48
2023/01/05 00:32:32;;;;;;;;;;;;;;;19.44;39.06;96069.81;10396739;28;2765;-45
2023/01/05 00:37:33;;;;;;;;;;;;;;;19.43;40.00;96076.13;10407147;28;2742;-48
2023/01/05 00:42:33;;;;;;;;;;;;;;;19.41;39.13;96068.47;10403395;28;2701;-46
2023/01/05 00:47:33;;;;;;;;;;;;;;;19.39;38.97;96077.69;10402143;28;2890;-47
2023/01/05 00:52:34;;;;;;;;;;;;;;;19.36;39.07;96065.84;10402807;28;2758;-46
2023/01/05 00:57:34;;;;;;;;;;;;;;;19.34;38.98;96062.69;10398500;28;2726;-46
2023/01/05 01:02:34;;;;;;;;;;;;;;;19.35;39.88;96053.75;10398724;28;2712;-46
2023/01/05 01:07:35;;;;;;;;;;;;;;;19.34;38.41;96075.84;10401103;28;2694;-47
2023/01/05 01:12:35;;;;;;;;;;;;;;;19.32;38.92;96067.38;10399311;28;2858;-45
2023/01/05 01:17:35;;;;;;;;;;;;;;;19.31;39.62;96065.00;10388529;28;2808;-46
2023/01/05 01:22:35;;;;;;;;;;;;;;;19.29;39.33;96062.63;10388503;28;2815;-45
2023/01/05 01:27:36;;;;;;;;;;;;;;;19.27;39.22;96062.09;10400981;28;2792;-45
2023/01/05 01:32:36;;;;;;;;;;;;;;;19.25;38.61;96064.19;10391574;28;2694;-46
2023/01/05 01:37:36;;;;;;;;;;;;;;;19.23;39.07;96058.41;10393574;28;2753;-48
2023/01/05 01:42:36;;;;;;;;;;;;;;;19.22;38.62;96053.41;10397982;28;2704;-46
2023/01/05 01:47:40;;;;;;;;;;;;;;;19.20;38.56;96061.56;10397730;28;2764;-46
2023/01/05 01:52:40;;;;;;;;;;;;;;;19.19;39.00;96057.34;10390133;28;2891;-45
2023/01/05 01:57:40;;;;;;;;;;;;;;;19.18;39.08;96040.00;10394280;28;2707;-46
2023/01/05 02:02:40;;;;;;;;;;;;;;;19.16;39.14;96028.97;10408012;28;2730;-47
2023/01/05 02:07:44;;;;;;;;;;;;;;;19.16;38.72;96028.97;10393123;28;2694;-47
2023/01/05 02:13:00;;;;;;;;;;;;;;;19.13;38.78;96010.28;10384863;28;2862;-47
2023/01/05 02:18:03;;;;;;;;;;;;;;;19.13;39.24;95995.31;10400258;28;2766;-46
2023/01/05 02:23:22;;;;;;;;;;;;;;;19.12;38.77;95974.56;10393404;28;2743;-45
2023/01/05 02:28:42;;;;;;;;;;;;;;;19.10;38.91;95966.91;10396685;28;2687;-50
2023/01/05 02:33:53;;;;;;;;;;;;;;;19.08;39.04;95962.97;10397596;28;2799;-48
2023/01/05 02:39:03;;;;;;;;;;;;;;;19.07;38.63;95959.56;10383386;28;2834;-46
2023/01/05 02:44:03;;;;;;;;;;;;;;;19.06;38.76;95949.31;10392578;28;2745;-46
2023/01/05 02:49:03;;;;;;;;;;;;;;;19.05;38.62;95947.72;10412335;28;3152;-46
2023/01/05 02:54:05;;;;;;;;;;;;;;;19.03;38.94;95969.00;10386195;28;2739;-45
2023/01/05 02:59:05;;;;;;;;;;;;;;;19.03;38.94;95976.88;10417158;28;2732;-45
2023/01/05 03:04:12;;;;;;;;;;;;;;;19.01;39.13;95954.53;10393755;28;2725;-45
2023/01/05 03:09:13;;;;;;;;;;;;;;;18.99;39.04;95928.53;10408125;28;2694;-47
2023/01/05 03:14:19;;;;;;;;;;;;;;;18.99;38.96;95930.38;10412293;28;2812;-48
2023/01/05 03:19:35;;;;;;;;;;;;;;;18.97;38.92;95929.84;10393673;28;2741;-45
2023/01/05 03:35:35;;;;;;;;;;;;;;;18.94;39.33;95923.25;10395637;28;2805;-45
2023/01/05 03:40:35;;;;;;;;;;;;;;;18.94;39.16;95922.47;10412211;28;2741;-46
2023/01/05 03:45:40;;;;;;;;;;;;;;;18.92;39.04;95925.34;10404042;28;2714;-45
2023/01/05 03:50:40;;;;;;;;;;;;;;;18.92;39.08;95911.44;10411360;28;2798;-46
2023/01/05 03:55:40;;;;;;;;;;;;;;;18.91;38.86;95918.53;10396959;28;2688;-45
2023/01/05 04:00:41;;;;;;;;;;;;;;;18.89;39.04;95907.50;10394182;28;2801;-46
2023/01/05 04:05:41;;;;;;;;;;;;;;;18.87;39.04;95909.59;10398907;28;2747;-47
2023/01/05 04:10:41;;;;;;;;;;;;;;;18.86;39.16;95910.63;10397302;28;2737;-45
2023/01/05 04:15:43;;;;;;;;;;;;;;;18.83;39.03;95908.53;10402697;28;2706;-46
2023/01/05 04:20:43;;;;;;;;;;;;;;;18.86;39.06;95908.00;10396762;28;2919;-46
2023/01/05 04:25:45;;;;;;;;;;;;;;;18.84;39.22;95919.81;10395927;28;2755;-47
2023/01/05 04:30:48;;;;;;;;;;;;;;;18.84;39.08;95927.69;10403080;28;2854;-48
2023/01/05 04:35:48;;;;;;;;;;;;;;;18.83;39.02;95929.53;10396563;28;2744;-47
2023/01/05 04:40:49;;;;;;;;;;;;;;;18.80;39.07;95927.41;10399616;28;2716;-45
2023/01/05 04:45:49;;;;;;;;;;;;;;;18.80;39.26;95924.78;10393116;28;2698;-47
2023/01/05 04:50:53;;;;;;;;;;;;;;;18.81;39.08;95923.75;10392208;28;2794;-45
2023/01/05 04:55:53;;;;;;;;;;;;;;;18.79;39.44;95917.97;10397042;28;2769;-45
2023/01/05 05:00:53;;;;;;;;;;;;;;;18.78;39.44;95902.44;10394364;28;2698;-45
2023/01/05 05:05:54;;;;;;;;;;;;;;;18.78;38.84;95890.13;10400158;28;2727;-47
2023/01/05 05:10:54;;;;;;;;;;;;;;;18.78;38.87;95915.59;10391623;28;2742;-45
2023/01/05 05:15:54;;;;;;;;;;;;;;;18.75;38.97;95910.88;10404739;28;2819;-46
2023/01/05 05:20:54;;;;;;;;;;;;;;;18.74;39.09;95896.94;10398185;28;2744;-45
2023/01/05 05:25:55;;;;;;;;;;;;;;;18.79;39.52;95901.41;10401223;28;2783;-46
2023/01/05 05:30:55;;;;;;;;;;;;;;;18.80;39.43;95903.78;10405127;28;2735;-46
2023/01/05 05:35:55;;;;;;;;;;;;;;;18.85;40.28;95916.16;10427323;28;2731;-45
2023/01/05 05:40:56;;;;;;;;;;;;;;;18.88;39.91;95910.34;10397863;28;2798;-46
2023/01/05 05:45:56;;;;;;;;;;;;;;;18.91;39.69;95904.59;10397085;28;2697;-47
2023/01/05 05:50:56;;;;;;;;;;;;;;;18.95;39.50;95914.34;10395819;28;2822;-47
2023/01/05 05:55:56;;;;;;;;;;;;;;;18.98;39.58;95921.69;10388559;28;2722;-46
2023/01/05 06:00:58;;;;;;;;;;;;;;;19.01;39.93;95917.75;10388098;28;2796;-47
2023/01/05 06:05:58;;;;;;;;;;;;;;;19.05;39.97;95927.50;10391024;28;2802;-47
2023/01/05 06:10:58;;;;;;;;;;;;;;;19.06;39.53;95926.44;10385798;28;2767;-46
2023/01/05 06:15:58;;;;;;;;;;;;;;;19.09;39.88;95943.53;10389211;28;2711;-45
2023/01/05 06:20:59;;;;;;;;;;;;;;;19.10;39.57;95935.38;10396241;28;2707;-45
2023/01/05 06:25:59;;;;;;;;;;;;;;;19.10;39.59;95945.13;10387135;28;2684;-45
2023/01/05 06:30:59;;;;;;;;;;;;;;;19.10;39.77;95935.38;10397776;28;2680;-46
2023/01/05 06:35:59;;;;;;;;;;;;;;;19.12;39.08;95954.31;10401271;28;2743;-47
2023/01/05 06:41:00;;;;;;;;;;;;;;;19.14;39.78;95961.94;10387829;28;2721;-45
2023/01/05 06:46:00;;;;;;;;;;;;;;;19.17;39.86;95962.22;10395726;28;2810;-46
2023/01/05 06:51:00;;;;;;;;;;;;;;;19.18;39.32;95955.13;10389332;28;2762;-45
2023/01/05 06:56:01;;;;;;;;;;;;;;;19.21;40.14;95971.16;10392187;28;2746;-45
2023/01/05 07:01:01;;;;;;;;;;;;;;;19.22;39.79;95987.72;10393099;28;2694;-46
2023/01/05 07:06:03;;;;;;;;;;;;;;;19.24;39.54;95972.47;10393481;28;2737;-45
2023/01/05 07:11:03;;;;;;;;;;;;;;;19.27;39.71;95978.00;10404002;28;2676;-46
2023/01/05 07:16:03;;;;;;;;;;;;;;;19.28;39.39;95979.59;10391735;28;2674;-46
2023/01/05 07:21:03;;;;;;;;;;;;;;;19.30;39.59;95979.31;10392867;28;2736;-45
2023/01/05 07:26:04;;;;;;;;;;;;;;;19.32;39.65;95996.41;10396256;28;2961;-45
2023/01/05 07:31:08;;;;;;;;;;;;;;;19.32;39.47;95987.72;10392756;28;2712;-45
2023/01/05 07:36:08;;;;;;;;;;;;;;;19.35;39.96;96001.16;10394889;28;2759;-45
2023/01/05 07:41:08;;;;;;;;;;;;;;;19.34;39.42;95993.56;10393562;28;2736;-46
2023/01/05 07:46:09;;;;;;;;;;;;;;;19.35;39.53;96006.44;10395464;28;2759;-46
2023/01/05 07:51:09;;;;;;;;;;;;;;;19.37;39.55;96017.47;10394756;28;2690;-46
2023/01/05 07:56:09;;;;;;;;;;;;;;;19.41;39.53;96031.69;10393852;28;2753;-46
2023/01/05 08:01:10;;;;;;;;;;;;;;;19.39;38.91;96038.25;10381991;28;2730;-45
2023/01/05 08:06:12;;;;;;;;;;;;;;;19.38;39.06;96047.97;10367428;28;2839;-45
2023/01/05 08:11:15;;;;;;;;;;;;;;;19.39;38.73;96046.16;10391136;28;2724;-47
2023/01/05 08:16:16;;;;;;;;;;;;;;;19.38;38.57;96050.63;10394592;28;2720;-49
2023/01/05 08:21:16;;;;;;;;;;;;;;;19.39;38.95;96061.94;10395395;28;2856;-46
2023/01/05 08:26:17;;;;;;;;;;;;;;;19.37;38.94;96072.69;10394718;28;2804;-45
2023/01/05 08:31:37;;;;;;;;;;;;;;;19.37;38.54;96077.94;10393440;28;2664;-46
2023/01/05 08:36:38;;;;;;;;;;;;;;;19.37;39.12;96082.41;10394955;28;2757;-47
2023/01/05 08:41:39;;;;;;;;;;;;;;;19.35;38.24;96080.03;10407157;28;2742;-46
2023/01/05 08:46:39;;;;;;;;;;;;;;;19.35;38.51;96101.06;10398041;28;2727;-46
2023/01/05 08:51:39;;;;;;;;;;;;;;;19.34;38.99;96102.13;10393018;28;2766;-47
2023/01/05 08:56:41;;;;;;;;;;;;;;;19.34;39.12;96115.25;10400703;28;2716;-47
2023/01/05 09:01:41;;;;;;;;;;;;;;;19.33;38.99;96113.66;10395709;28;2819;-48
2023/01/05 09:06:42;;;;;;;;;;;;;;;19.32;39.07;96122.59;10392516;28;2741;-47
2023/01/05 09:11:42;;;;;;;;;;;;;;;19.33;39.07;96131.28;10393085;28;2739;-45
2023/01/05 09:16:42;;;;;;;;;;;;;;;19.31;39.43;96135.97;10393775;28;2793;-47
2023/01/05 09:21:43;;;;;;;;;;;;;;;19.31;39.75;96134.13;10390477;28;2820;-46
2023/01/05 09:26:43;;;;;;;;;;;;;;;19.35;39.32;96137.84;10398550;28;2704;-45
2023/01/05 09:31:43;;;;;;;;;;;;;;;19.35;39.88;96137.84;10390638;28;2784;-49
2023/01/05 09:36:44;;;;;;;;;;;;;;;19.33;39.78;96137.31;10390259;28;2835;-45
2023/01/05 09:41:47;;;;;;;;;;;;;;;19.38;39.42;96137.38;10395387;28;2755;-49
2023/01/05 09:46:47;;;;;;;;;;;;;;;19.43;40.41;96133.97;10392037;28;2667;-47
2023/01/05 09:51:48;;;;;;;;;;;;;;;19.38;39.20;96142.63;10401515;28;2710;-45
2023/01/05 09:56:49;;;;;;;;;;;;;;;19.37;39.27;96129.75;10397502;28;2723;-47
2023/01/05 10:01:49;;;;;;;;;;;;;;;19.36;40.24;96131.56;10393803;28;2768;-46
2023/01/05 10:06:50;;;;;;;;;;;;;;;19.36;39.30;96139.47;10410984;28;2778;-47
2023/01/05 10:17:11;;;;;;;;;;;;;;;19.36;39.77;96164.94;10391634;28;2904;-45
2023/01/05 10:22:21;;;;;;;;;;;;;;;19.31;39.38;96154.34;10408217;28;2711;-47
2023/01/05 10:27:25;;;;;;;;;;;;;;;19.26;39.11;96149.91;10393348;28;2756;-48
2023/01/05 10:32:31;;;;;;;;;;;;;;;19.26;39.37;96170.91;10400938;28;2704;-46
2023/01/05 10:37:43;;;;;;;;;;;;;;;19.25;38.94;96166.69;10403936;28;2747;-47
2023/01/05 10:42:53;;;;;;;;;;;;;;;19.25;38.86;96171.94;10386354;28;2742;-45
2023/01/05 10:47:53;;;;;;;;;;;;;;;19.26;38.98;96173.56;10400988;28;2672;-46
2023/01/05 10:52:53;;;;;;;;;;;;;;;19.28;38.89;96174.09;10387184;28;2795;-47
2023/01/05 10:57:53;;;;;;;;;;;;;;;19.30;39.00;96176.44;10385907;28;2751;-46
2023/01/05 11:02:57;;;;;;;;;;;;;;;19.31;38.78;96163.03;10383839;28;2730;-47
2023/01/05 11:07:58;;;;;;;;;;;;;;;19.34;38.77;96173.09;10395195;28;2723;-45
2023/01/05 11:13:05;;;;;;;;;;;;;;;19.35;38.64;96174.66;10396928;28;2839;-46
2023/01/05 11:18:06;;;;;;;;;;;;;;;19.38;38.76;96161.03;10387361;28;2751;-46
2023/01/05 11:23:13;;;;;;;;;;;;;;;19.40;38.79;96163.38;10406583;28;2716;-45
2023/01/05 11:28:15;;;;;;;;;;;;;;;19.42;38.75;96162.09;10403877;28;2686;-46
2023/01/05 11:33:27;;;;;;;;;;;;;;;19.44;39.12;96148.69;10392314;28;2667;-45
2023/01/05 11:38:28;;;;;;;;;;;;;;;19.49;38.74;96160.00;10391380;28;3050;-45
2023/01/05 11:43:29;;;;;;;;;;;;;;;19.49;38.54;96153.97;10383794;28;2686;-48
2023/01/05 11:48:30;;;;;;;;;;;;;;;19.51;38.44;96154.50;10388961;28;2727;-46
2023/01/05 11:53:35;;;;;;;;;;;;;;;19.56;38.74;96159.78;10393431;28;2810;-46
2023/01/05 11:58:45;;;;;;;;;;;;;;;19.59;38.47;96153.22;10400074;28;2734;-45
2023/01/05 12:03:52;;;;;;;;;;;;;;;19.80;39.01;96160.94;10395700;28;2763;-44
2023/01/05 12:09:14;;;;;;;;;;;;;;;19.93;38.59;96143.84;10399542;28;2743;-45
2023/01/05 12:14:23;;;;;;;;;;;;;;;20.06;38.22;96151.25;10390122;28;2727;-45
2023/01/05 12:19:27;;;;;;;;;;;;;;;20.22;37.79;96142.34;10384471;28;2694;-46
2023/01/05 12:24:47;;;;;;;;;;;;;;;20.25;38.40;96144.47;10393091;28;2999;-46
2023/01/05 12:30:00;;;;;;;;;;;;;;;20.29;37.86;96129.75;10394762;28;2663;-46
2023/01/05 12:35:20;;;;;;;;;;;;;;;20.20;37.65;96145.25;10395226;28;2609;-46
2023/01/05 12:40:37;;;;;;;;;;;;;;;20.11;37.60;96152.03;10398389;28;2471;-46
2023/01/05 12:45:53;;;;;;;;;;;;;;;20.06;37.78;96149.41;10401349;28;2516;-47
2023/01/05 12:50:57;;;;;;;;;;;;;;;20.00;37.53;96147.03;10394153;28;2527;-47
2023/01/05 12:55:58;;;;;;;;;;;;;;;19.96;37.80;96144.13;10398255;28;2444;-46
2023/01/05 13:00:58;;;;;;;;;;;;;;;19.94;37.98;96140.19;10397124;28;2488;-48
2023/01/05 13:06:05;;;;;;;;;;;;;;;19.91;37.78;96145.94;10410367;28;2458;-47
2023/01/05 13:11:08;;;;;;;;;;;;;;;19.90;37.59;96162.78;10401863;28;2430;-48
2023/01/05 13:16:44;;;;;;;;;;;;;;;19.92;38.25;96160.69;10385806;28;2499;-45
2023/01/05 13:21:44;;;;;;;;;;;;;;;19.90;37.97;96157.53;10410832;28;2468;-46
2023/01/05 13:26:44;;;;;;;;;;;;;;;19.90;38.16;96154.91;10390471;28;2502;-45
2023/01/05 13:31:53;;;;;;;;;;;;;;;19.91;37.83;96169.63;10395469;28;2386;-46
2023/01/05 13:36:56;;;;;;;;;;;;;;;19.94;38.16;96162.03;10391191;28;2497;-49
2023/01/05 13:42:06;;;;;;;;;;;;;;;19.93;38.21;96170.94;10390186;28;2480;-46
2023/01/05 13:47:24;;;;;;;;;;;;;;;19.92;37.92;96179.13;10392084;28;2471;-47
2023/01/05 13:52:24;;;;;;;;;;;;;;;19.92;37.87;96184.38;10393231;28;2387;-46
2023/01/05 13:57:25;;;;;;;;;;;;;;;19.92;37.88;96181.75;10390626;28;2530;-45
2023/01/05 14:02:26;;;;;;;;;;;;;;;19.91;37.92;96183.56;10396114;28;2511;-45
2023/01/05 14:07:26;;;;;;;;;;;;;;;19.93;37.98;96191.19;10392553;28;2415;-45
2023/01/05 14:12:40;;;;;;;;;;;;;;;19.95;37.97;96200.44;10395351;28;2426;-46
2023/01/05 14:17:56;;;;;;;;;;;;;;;19.94;38.06;96204.13;10408843;28;2558;-45
2023/01/05 14:22:57;;;;;;;;;;;;;;;19.96;38.09;96211.75;10385391;28;2469;-45
2023/01/05 14:28:17;;;;;;;;;;;;;;;19.99;38.53;96224.41;10394461;28;2416;-46
2023/01/05 14:33:18;;;;;;;;;;;;;;;20.02;39.10;96237.03;10393285;28;2406;-48
2023/01/05 14:38:20;;;;;;;;;;;;;;;20.02;38.63;96255.44;10392226;28;2543;-46
2023/01/05 14:43:22;;;;;;;;;;;;;;;20.01;38.58;96251.25;10385205;28;2472;-46
2023/01/05 14:48:25;;;;;;;;;;;;;;;19.99;38.36;96221.78;10395680;28;2420;-45
2023/01/05 14:53:36;;;;;;;;;;;;;;;19.98;38.26;96241.22;10408384;28;2509;-48
2023/01/05 14:58:36;;;;;;;;;;;;;;;19.96;38.05;96246.75;10390969;28;2462;-49
2023/01/05 15:03:38;;;;;;;;;;;;;;;19.96;37.99;96248.59;10393994;28;2499;-48
2023/01/05 15:08:57;;;;;;;;;;;;;;;19.95;37.95;96257.50;10391893;28;2401;-48
2023/01/05 15:19:27;;;;;;;;;;;;;;;19.95;37.98;96265.41;10401839;28;2465;-47
2023/01/05 15:24:46;;;;;;;;;;;;;;;19.94;37.78;96255.94;10384210;28;2410;-45
2023/01/05 15:29:46;;;;;;;;;;;;;;;19.91;37.70;96259.88;10387311;28;2519;-46
2023/01/05 15:34:48;;;;;;;;;;;;;;;19.94;38.52;96269.09;10395414;28;2444;-44
2023/01/05 15:39:49;;;;;;;;;;;;;;;19.94;38.28;96269.09;10400829;28;2515;-44
2023/01/05 15:44:50;;;;;;;;;;;;;;;19.97;38.66;96277.25;10394914;28;2440;-44
2023/01/05 15:49:53;;;;;;;;;;;;;;;19.95;38.99;96283.81;10399399;28;2382;-44
2023/01/05 15:55:13;;;;;;;;;;;;;;;19.92;39.04;96284.34;10409074;28;2545;-45
2023/01/05 16:00:23;;;;;;;;;;;;;;;19.94;38.70;96292.78;10395590;28;2479;-46
2023/01/05 16:05:24;;;;;;;;;;;;;;;19.93;38.90;96301.72;10402209;28;2475;-46
2023/01/05 16:10:38;;;;;;;;;;;;;;;19.91;39.72;96298.53;10398766;28;2515;-45
2023/01/05 16:15:38;;;;;;;;;;;;;;;19.91;39.42;96303.81;10412024;28;2412;-46
2023/01/05 16:20:40;;;;;;;;;;;;;;;19.92;39.78;96310.66;10398578;28;2620;-46
2023/01/05 16:25:48;;;;;;;;;;;;;;;19.93;39.84;96314.88;10398549;28;2435;-47
2023/01/05 16:30:48;;;;;;;;;;;;;;;19.90;39.25;96312.75;10391524;28;2451;-44
2023/01/05 16:36:04;;;;;;;;;;;;;;;19.92;39.71;96305.41;10394733;28;2642;-46
2023/01/05 16:41:04;;;;;;;;;;;;;;;19.87;39.03;96303.53;10399836;28;2477;-46
2023/01/05 16:46:24;;;;;;;;;;;;;;;19.88;38.66;96302.50;10395574;28;2464;-47
2023/01/05 16:51:35;;;;;;;;;;;;;;;19.83;38.29;96301.66;10397648;28;2427;-46
2023/01/05 16:56:35;;;;;;;;;;;;;;;19.84;38.54;96309.31;10379061;28;2417;-48
2023/01/05 17:01:39;;;;;;;;;;;;;;;19.81;38.49;96314.28;10403281;28;2418;-48
2023/01/05 17:06:40;;;;;;;;;;;;;;;19.81;38.32;96314.28;10415418;28;2479;-46
2023/01/05 17:11:40;;;;;;;;;;;;;;;19.81;38.44;96317.72;10397549;28;2424;-46
2023/01/05 17:16:40;;;;;;;;;;;;;;;19.79;38.84;96332.16;10398206;28;2499;-45
2023/01/05 17:21:41;;;;;;;;;;;;;;;19.77;38.67;96319.25;10401125;28;2429;-45
2023/01/05 17:26:42;;;;;;;;;;;;;;;19.81;39.05;96320.34;10396148;28;2437;-46
2023/01/05 17:31:42;;;;;;;;;;;;;;;19.88;38.79;96325.38;10400163;28;2464;-45
2023/01/05 17:36:42;;;;;;;;;;;;;;;19.85;38.86;96325.88;10401379;28;2510;-44
2023/01/05 17:41:42;;;;;;;;;;;;;;;19.87;38.72;96329.84;10399829;28;2471;-46
2023/01/05 17:46:43;;;;;;;;;;;;;;;19.93;38.72;96335.91;10400014;28;2594;-47
2023/01/05 17:51:43;;;;;;;;;;;;;;;19.96;39.20;96338.06;10404059;28;2431;-46
2023/01/05 17:56:44;;;;;;;;;;;;;;;19.97;39.30;96352.81;10402495;28;2456;-46
2023/01/05 18:01:44;;;;;;;;;;;;;;;19.98;40.04;96354.38;10397660;28;2418;-44
2023/01/05 18:06:44;;;;;;;;;;;;;;;19.97;39.37;96355.44;10401148;28;2486;-44
2023/01/05 18:11:44;;;;;;;;;;;;;;;19.83;39.20;96343.75;10403719;28;2458;-47
2023/01/05 18:16:45;;;;;;;;;;;;;;;19.82;38.30;96342.19;10396233;28;2456;-47
2023/01/05 18:21:45;;;;;;;;;;;;;;;19.74;38.01;96340.03;10398309;28;2450;-45
2023/01/05 18:26:47;;;;;;;;;;;;;;;19.76;38.60;96335.31;10395781;28;2516;-47
2023/01/05 18:31:47;;;;;;;;;;;;;;;19.77;38.55;96342.13;10392359;28;2468;-47
2023/01/05 18:36:47;;;;;;;;;;;;;;;19.75;38.86;96337.13;10398091;28;2445;-46
2023/01/05 18:41:48;;;;;;;;;;;;;;;19.75;38.47;96344.22;10400562;28;2475;-48
2023/01/05 18:46:48;;;;;;;;;;;;;;;19.79;38.40;96337.41;10400792;28;2520;-46
2023/01/05 18:51:49;;;;;;;;;;;;;;;19.75;38.66;96334.50;10399693;28;2442;-46
2023/01/05 18:56:49;;;;;;;;;;;;;;;19.74;38.53;96343.44;10393002;28;2491;-45
2023/01/05 19:01:49;;;;;;;;;;;;;;;19.78;38.79;96341.91;10399821;28;2572;-50
2023/01/05 19:06:49;;;;;;;;;;;;;;;19.77;38.46;96337.69;10402083;28;2812;-45
2023/01/05 19:11:50;;;;;;;;;;;;;;;19.75;38.71;96338.97;10397131;28;2467;-46
2023/01/05 19:16:50;;;;;;;;;;;;;;;19.78;38.79;96341.09;10398899;28;2477;-45
2023/01/05 19:21:51;;;;;;;;;;;;;;;19.76;38.38;96332.69;10396867;28;2549;-45
2023/01/05 19:26:51;;;;;;;;;;;;;;;19.75;38.45;96333.72;10394713;28;2590;-45
2023/01/05 19:31:51;;;;;;;;;;;;;;;19.77;38.48;96339.50;10405177;28;2472;-44
2023/01/05 19:36:51;;;;;;;;;;;;;;;19.73;38.34;96335.81;10400246;28;2398;-46
2023/01/05 19:41:52;;;;;;;;;;;;;;;19.71;38.35;96330.00;10400946;28;2564;-47
2023/01/05 19:46:52;;;;;;;;;;;;;;;19.70;38.12;96325.81;10397011;28;2490;-45
2023/01/05 19:51:53;;;;;;;;;;;;;;;19.68;38.29;96322.63;10390758;28;2456;-49
2023/01/05 19:56:53;;;;;;;;;;;;;;;19.67;38.06;96318.41;10397438;28;2479;-46
2023/01/05 20:01:54;;;;;;;;;;;;;;;19.69;38.19;96311.06;10395625;28;2475;-45
2023/01/05 20:06:55;;;;;;;;;;;;;;;19.68;38.15;96314.75;10394048;28;2518;-45
2023/01/05 20:11:55;;;;;;;;;;;;;;;19.69;38.19;96317.13;10393591;28;2444;-45
2023/01/05 20:16:56;;;;;;;;;;;;;;;19.70;38.35;96302.13;10398096;28;2423;-45
2023/01/05 20:21:57;;;;;;;;;;;;;;;19.69;38.67;96305.78;10398664;28;2422;-45
2023/01/05 20:26:58;;;;;;;;;;;;;;;19.70;38.22;96316.06;10404303;28;2476;-44
2023/01/05 20:31:59;;;;;;;;;;;;;;;19.70;38.09;96315.28;10419216;28;2460;-44
2023/01/05 20:37:00;;;;;;;;;;;;;;;19.71;38.10;96317.66;10402165;28;2481;-46
2023/01/05 20:42:03;;;;;;;;;;;;;;;19.72;38.03;96315.81;10408229;28;2558;-44
2023/01/05 20:47:04;;;;;;;;;;;;;;;19.74;38.23;96319.00;10408402;28;2465;-46
2023/01/05 20:52:05;;;;;;;;;;;;;;;19.73;38.07;96326.09;10407609;28;2416;-44
2023/01/05 20:57:05;;;;;;;;;;;;;;;19.72;38.12;96324.47;10408153;28;2422;-45
2023/01/05 21:02:05;;;;;;;;;;;;;;;19.74;38.33;96329.50;10410012;28;2547;-46
2023/01/05 21:07:05;;;;;;;;;;;;;;;19.73;38.19;96328.72;10401481;28;2435;-47
2023/01/05 21:12:06;;;;;;;;;;;;;;;19.72;38.18;96331.59;10395772;28;2501;-47
2023/01/05 21:17:06;;;;;;;;;;;;;;;19.72;38.57;96337.63;10413989;28;2423;-44
2023/01/05 21:22:06;;;;;;;;;;;;;;;19.74;39.06;96340.03;10395546;28;2583;-47
2023/01/05 21:27:06;;;;;;;;;;;;;;;19.74;38.76;96347.94;10400715;28;2445;-47
2023/01/05 21:32:07;;;;;;;;;;;;;;;19.75;39.17;96357.38;10397181;28;2546;-47
2023/01/05 21:37:07;;;;;;;;;;;;;;;19.74;38.89;96346.06;10399017;28;2711;-46
2023/01/05 21:47:27;;;;;;;;;;;;;;;19.74;38.98;96350.56;10401452;28;2502;-45
2023/01/05 21:57:46;;;;;;;;;;;;;;;19.72;39.58;96350.00;10407294;28;2446;-45
2023/01/05 22:02:46;;;;;;;;;;;;;;;19.68;39.99;96344.44;10399382;28;2394;-46
2023/01/05 22:07:47;;;;;;;;;;;;;;;19.67;39.32;96350.78;10393972;28;2490;-46
2023/01/05 22:12:47;;;;;;;;;;;;;;;19.65;39.88;96357.31;10395969;28;2403;-45
2023/01/05 22:17:47;;;;;;;;;;;;;;;19.61;39.39;96354.41;10393399;28;2432;-46
2023/01/05 22:22:47;;;;;;;;;;;;;;;19.61;39.72;96345.72;10400797;28;2450;-45
2023/01/05 22:27:48;;;;;;;;;;;;;;;19.62;40.59;96347.31;10394877;28;2551;-48
2023/01/05 22:32:48;;;;;;;;;;;;;;;19.59;39.81;96345.19;10396387;28;2415;-46
2023/01/05 22:37:51;;;;;;;;;;;;;;;19.57;40.03;96347.28;10395442;28;2470;-49
2023/01/05 22:42:51;;;;;;;;;;;;;;;19.57;40.30;96349.91;10400637;28;2404;-48
2023/01/05 22:47:51;;;;;;;;;;;;;;;19.54;40.94;96345.94;10400439;28;2499;-46
2023/01/05 22:52:51;;;;;;;;;;;;;;;19.52;40.22;96349.84;10397667;28;2502;-46
2023/01/05 22:57:52;;;;;;;;;;;;;;;19.51;40.48;96350.91;10388357;28;2599;-46
2023/01/05 23:02:53;;;;;;;;;;;;;;;19.53;41.46;96348.81;10396897;28;2394;-48
2023/01/05 23:07:53;;;;;;;;;;;;;;;19.49;41.17;96345.91;10392717;28;2518;-44
2023/01/05 23:12:53;;;;;;;;;;;;;;;19.47;41.32;96334.84;10394948;28;2480;-46
2023/01/05 23:17:54;;;;;;;;;;;;;;;19.45;41.21;96336.94;10396279;28;2581;-47
2023/01/05 23:22:54;;;;;;;;;;;;;;;19.46;41.65;96328.78;10391828;28;2447;-47
2023/01/05 23:27:54;;;;;;;;;;;;;;;19.45;41.64;96327.19;10396645;28;2432;-46
2023/01/05 23:32:54;;;;;;;;;;;;;;;19.44;40.89;96328.25;10395961;28;2496;-45
2023/01/05 23:37:55;;;;;;;;;;;;;;;19.40;41.42;96314.03;10392508;28;2440;-50
2023/01/05 23:42:55;;;;;;;;;;;;;;;19.42;41.69;96324.28;10390859;28;2433;-45
2023/01/05 23:47:56;;;;;;;;;;;;;;;19.39;41.47;96328.22;10395915;28;2486;-44
2023/01/05 23:52:59;;;;;;;;;;;;;;;19.36;41.70;96318.22;10405295;28;2455;-45
2023/01/05 23:57:59;;;;;;;;;;;;;;;19.36;41.77;96312.16;10404491;28;2368;-44
